Enetai, Washington
Current Conditions -  °F | °C
As of 12:55 AM on Friday 21 Nov 2014 (Local Time) from KPWT Reporting Station
Overcast Overcast  
Wind Chill: 45°   Ceiling: 3200
Heat Index: 48°   Visibility: 10mi
Dew Point: 46°   Wind: 7mph
Humidity: 93%   Direction: 180°S
Pressure: 29.89"   Gusts: NA
Location:  47.5691°N, 122.818°W
Report Text: KPWT 210855Z AUTO 18006KT 10SM OVC032 09/08 A2989 RMK AO1 57020
Loading
Personal Weather Stations






























Interactive Weather Map New forecast layout! Learn more

10-Day Weather Forecast

Advertisements
Track Severe Weather on mobile